createdAt,value
2023-05-14T00:00:38.676Z,12.30
2023-05-14T00:03:27.167Z,12.60
2023-05-14T00:05:55.664Z,13.30
2023-05-14T00:08:24.039Z,10.80
2023-05-14T00:10:52.661Z,10.70
2023-05-14T00:13:21.253Z,10.90
2023-05-14T00:15:49.706Z,9.50
2023-05-14T00:18:18.288Z,12.90
2023-05-14T00:20:46.657Z,12.40
2023-05-14T00:23:15.021Z,10.30
2023-05-14T00:25:43.338Z,10.30
2023-05-14T00:28:11.635Z,11.20
2023-05-14T00:30:40.722Z,11.20
2023-05-14T00:33:09.126Z,11.40
2023-05-14T00:35:37.807Z,9.70
2023-05-14T00:38:06.154Z,10.20
2023-05-14T00:40:34.546Z,9.60
2023-05-14T00:43:03.919Z,11.40
2023-05-14T00:45:32.439Z,10.60
2023-05-14T00:48:00.875Z,9.60
2023-05-14T00:50:29.297Z,9.50
2023-05-14T00:52:57.837Z,10.50
2023-05-14T00:55:26.860Z,9.50
2023-05-14T00:57:58.253Z,10.40
2023-05-14T01:00:26.923Z,12.00
2023-05-14T01:02:55.395Z,11.10
2023-05-14T01:05:27.513Z,11.40
2023-05-14T01:08:10.668Z,11.10
2023-05-14T01:11:06.140Z,10.90
2023-05-14T01:13:40.847Z,10.10
2023-05-14T01:16:14.304Z,8.80
2023-05-14T01:18:49.500Z,11.40
2023-05-14T01:21:43.224Z,10.70
2023-05-14T01:24:11.580Z,9.80
2023-05-14T01:26:39.994Z,9.50
2023-05-14T01:29:23.243Z,9.80
2023-05-14T01:31:54.494Z,11.10
2023-05-14T01:34:25.691Z,9.10
2023-05-14T01:36:57.039Z,9.20
2023-05-14T01:39:27.324Z,9.40
2023-05-14T01:41:56.001Z,10.00
2023-05-14T01:44:25.116Z,9.30
2023-05-14T01:46:53.496Z,9.20
2023-05-14T01:49:21.850Z,7.80
2023-05-14T01:51:50.466Z,8.80
2023-05-14T01:54:18.797Z,9.30
2023-05-14T01:56:47.167Z,8.30
2023-05-14T01:59:16.193Z,10.30
2023-05-14T02:01:44.627Z,9.70
2023-05-14T02:04:13.081Z,8.20
2023-05-14T02:06:43.115Z,9.30
2023-05-14T02:09:11.496Z,10.40
2023-05-14T02:11:40.110Z,8.90
2023-05-14T02:14:08.462Z,9.30
2023-05-14T02:16:36.829Z,13.80
2023-05-14T02:19:05.311Z,9.30
2023-05-14T02:21:33.711Z,10.30
2023-05-14T02:24:02.145Z,9.90
2023-05-14T02:26:30.439Z,7.60
2023-05-14T02:28:59.036Z,10.20
2023-05-14T02:31:27.443Z,9.70
2023-05-14T02:33:55.850Z,9.10
2023-05-14T02:36:24.221Z,10.80
2023-05-14T02:38:52.648Z,9.10
2023-05-14T02:41:21.678Z,9.30
2023-05-14T02:43:50.044Z,8.40
2023-05-14T02:46:18.592Z,9.70
2023-05-14T02:48:46.934Z,10.00
2023-05-14T02:51:16.344Z,9.80
2023-05-14T02:53:44.907Z,8.30
2023-05-14T02:56:13.333Z,8.80
2023-05-14T02:58:41.791Z,10.90
2023-05-14T03:01:10.313Z,9.40
2023-05-14T03:03:39.077Z,7.80
2023-05-14T03:06:08.244Z,9.00
2023-05-14T03:08:36.803Z,8.70
2023-05-14T03:11:05.213Z,9.40
2023-05-14T03:13:34.006Z,8.40
2023-05-14T03:16:02.544Z,8.80
2023-05-14T03:18:31.046Z,10.80
2023-05-14T03:20:59.436Z,9.50
2023-05-14T03:23:28.098Z,8.80
2023-05-14T03:25:56.860Z,10.10
2023-05-14T03:28:26.199Z,11.30
2023-05-14T03:30:54.774Z,8.20
2023-05-14T03:33:23.871Z,9.60
2023-05-14T03:35:52.463Z,8.30
2023-05-14T03:38:22.761Z,8.90
2023-05-14T03:40:51.104Z,8.40
2023-05-14T03:43:19.626Z,12.20
2023-05-14T03:45:52.513Z,8.00
2023-05-14T03:48:21.448Z,9.00
2023-05-14T03:50:49.853Z,11.30
2023-05-14T03:53:18.404Z,8.10
2023-05-14T03:55:47.599Z,7.80
2023-05-14T03:58:16.149Z,8.90
2023-05-14T04:00:44.673Z,10.10
2023-05-14T04:03:13.234Z,8.10
2023-05-14T04:05:41.632Z,9.90
2023-05-14T04:08:09.926Z,10.90
2023-05-14T04:10:38.290Z,10.30
2023-05-14T04:13:06.735Z,8.50
2023-05-14T04:15:39.437Z,9.40
2023-05-14T04:18:08.052Z,8.00
2023-05-14T04:20:37.083Z,10.20
2023-05-14T04:23:05.979Z,9.80
2023-05-14T04:25:34.531Z,10.40
2023-05-14T04:28:03.018Z,9.50
2023-05-14T04:30:31.386Z,8.80
2023-05-14T04:32:59.822Z,8.90
2023-05-14T04:35:28.259Z,7.30
2023-05-14T04:37:56.909Z,9.20
2023-05-14T04:40:25.762Z,11.70
2023-05-14T04:42:54.368Z,10.30
2023-05-14T04:45:22.765Z,11.20
2023-05-14T04:47:51.603Z,8.30
2023-05-14T04:50:20.037Z,8.30
2023-05-14T04:52:48.457Z,8.00
2023-05-14T04:55:16.871Z,8.90
2023-05-14T04:57:45.316Z,10.60
2023-05-14T05:00:14.208Z,9.40
2023-05-14T05:02:42.590Z,9.00
2023-05-14T05:05:11.296Z,8.50
2023-05-14T05:07:39.624Z,8.30
2023-05-14T05:10:08.809Z,9.50
2023-05-14T05:12:37.271Z,8.80
2023-05-14T05:15:06.558Z,8.60
2023-05-14T05:17:34.979Z,9.20
2023-05-14T05:20:05.420Z,9.00
2023-05-14T05:22:33.848Z,9.40
2023-05-14T05:25:05.634Z,7.50
2023-05-14T05:27:34.070Z,8.00
2023-05-14T05:30:03.089Z,8.40
2023-05-14T05:32:31.544Z,7.40
2023-05-14T05:35:00.040Z,7.40
2023-05-14T05:37:28.398Z,6.70
2023-05-14T05:39:56.781Z,7.50
2023-05-14T05:42:25.158Z,6.30
2023-05-14T05:44:53.542Z,7.40
2023-05-14T05:47:22.024Z,7.00
2023-05-14T05:49:50.431Z,6.40
2023-05-14T05:52:18.790Z,6.60
2023-05-14T05:54:47.234Z,7.30
2023-05-14T05:57:15.706Z,6.00
2023-05-14T05:59:44.049Z,7.50
2023-05-14T06:02:12.489Z,6.30
2023-05-14T06:04:41.126Z,6.20
2023-05-14T06:07:09.523Z,7.10
2023-05-14T06:09:38.161Z,7.80
2023-05-14T06:12:06.954Z,8.40
2023-05-14T06:14:35.506Z,7.90
2023-05-14T06:17:04.060Z,8.00
2023-05-14T06:19:32.735Z,6.90
2023-05-14T06:22:01.118Z,8.20
2023-05-14T06:24:29.452Z,7.30
2023-05-14T06:26:57.810Z,9.00
2023-05-14T06:29:26.186Z,9.40
2023-05-14T06:31:54.768Z,8.50
2023-05-14T06:34:26.170Z,6.30
2023-05-14T06:36:54.507Z,7.80
2023-05-14T06:39:22.942Z,6.80
2023-05-14T06:41:51.315Z,5.70
2023-05-14T06:44:19.771Z,6.00
2023-05-14T06:46:48.111Z,6.20
2023-05-14T06:49:16.456Z,6.20
2023-05-14T06:51:45.233Z,7.70
2023-05-14T06:54:13.535Z,5.50
2023-05-14T06:56:41.935Z,10.80
2023-05-14T06:59:10.302Z,5.00
2023-05-14T07:01:38.704Z,5.10
2023-05-14T07:04:07.234Z,7.40
2023-05-14T07:06:35.746Z,5.90
2023-05-14T07:09:04.433Z,5.70
2023-05-14T07:11:33.676Z,5.20
2023-05-14T07:14:02.093Z,6.10
2023-05-14T07:16:30.681Z,6.40
2023-05-14T07:18:59.143Z,6.70
2023-05-14T07:21:28.080Z,5.90
2023-05-14T07:23:56.408Z,4.90
2023-05-14T07:26:24.862Z,5.60
2023-05-14T07:28:53.453Z,5.90
2023-05-14T07:31:21.903Z,5.40
2023-05-14T07:33:50.330Z,7.20
2023-05-14T07:36:19.234Z,6.60
2023-05-14T07:38:47.628Z,6.00
2023-05-14T07:41:16.204Z,4.90
2023-05-14T07:43:44.525Z,5.10
2023-05-14T07:46:12.964Z,5.60
2023-05-14T07:48:41.333Z,6.50
2023-05-14T07:51:09.730Z,6.10
2023-05-14T07:53:38.134Z,6.00
2023-05-14T07:56:06.878Z,6.90
2023-05-14T07:58:36.123Z,6.50
2023-05-14T08:01:07.360Z,6.10
2023-05-14T08:03:35.913Z,5.50
2023-05-14T08:06:04.641Z,6.20
2023-05-14T08:08:33.079Z,10.50
2023-05-14T08:11:02.211Z,7.00
2023-05-14T08:13:30.543Z,13.80
2023-05-14T08:15:59.096Z,6.50
2023-05-14T08:18:27.637Z,6.20
2023-05-14T08:20:56.346Z,7.80
2023-05-14T08:23:24.780Z,6.20
2023-05-14T08:25:53.187Z,6.00
2023-05-14T08:28:21.653Z,6.70
2023-05-14T08:30:50.119Z,5.70
2023-05-14T08:33:18.529Z,6.80
2023-05-14T08:35:46.923Z,7.80
2023-05-14T08:38:15.257Z,5.10
2023-05-14T08:40:48.783Z,6.10
2023-05-14T08:43:21.267Z,5.50
2023-05-14T08:45:52.532Z,6.10
2023-05-14T08:48:23.248Z,6.20
2023-05-14T08:50:51.919Z,5.60
2023-05-14T08:53:20.651Z,5.10
2023-05-14T08:55:50.998Z,7.00
2023-05-14T08:58:19.911Z,6.60
2023-05-14T09:00:48.378Z,5.70
2023-05-14T09:03:18.598Z,5.90
2023-05-14T09:05:50.492Z,7.40
2023-05-14T09:08:20.117Z,7.00
2023-05-14T09:10:48.633Z,6.20
2023-05-14T09:13:16.975Z,4.60
2023-05-14T09:15:46.541Z,5.70
2023-05-14T09:18:15.113Z,6.40
2023-05-14T09:20:43.491Z,6.30
2023-05-14T09:23:11.858Z,7.30
2023-05-14T09:25:40.427Z,6.40
2023-05-14T09:28:11.547Z,7.10
2023-05-14T09:30:39.908Z,5.80
2023-05-14T09:33:10.543Z,6.70
2023-05-14T09:35:41.540Z,7.10
2023-05-14T09:38:09.972Z,8.10
2023-05-14T09:40:38.349Z,7.40
2023-05-14T09:43:06.789Z,10.30
2023-05-14T09:45:35.677Z,7.70
2023-05-14T09:48:04.236Z,6.60
2023-05-14T09:50:32.629Z,6.00
2023-05-14T09:53:01.117Z,7.60
2023-05-14T09:55:29.849Z,5.60
2023-05-14T09:57:58.277Z,5.10
2023-05-14T10:00:27.016Z,6.10
2023-05-14T10:02:57.123Z,6.80
2023-05-14T10:05:27.049Z,6.60
2023-05-14T10:07:59.112Z,6.30
2023-05-14T10:10:30.420Z,5.40
2023-05-14T10:13:04.986Z,5.70
2023-05-14T10:15:57.902Z,4.80
2023-05-14T10:18:31.262Z,5.90
2023-05-14T10:21:05.979Z,6.60
2023-05-14T10:23:38.062Z,6.20
2023-05-14T10:26:07.967Z,5.90
2023-05-14T10:28:38.342Z,5.70
2023-05-14T10:31:09.774Z,7.20
2023-05-14T10:33:50.983Z,5.70
2023-05-14T10:36:22.634Z,7.90
2023-05-14T10:38:57.553Z,5.00
2023-05-14T10:41:26.054Z,4.80
2023-05-14T10:43:57.649Z,6.20
2023-05-14T10:46:26.174Z,6.30
2023-05-14T10:48:54.685Z,5.50
2023-05-14T10:51:23.722Z,6.60
2023-05-14T10:53:52.915Z,6.80
2023-05-14T10:56:21.724Z,5.60
2023-05-14T10:58:50.707Z,5.90
2023-05-14T11:01:19.142Z,5.20
2023-05-14T11:03:47.652Z,5.60
2023-05-14T11:06:16.531Z,6.10
2023-05-14T11:08:46.672Z,6.50
2023-05-14T11:11:15.424Z,6.40
2023-05-14T11:13:44.906Z,8.20
2023-05-14T11:16:22.963Z,7.50
2023-05-14T11:19:03.796Z,6.80
2023-05-14T11:21:35.393Z,6.60
2023-05-14T11:24:05.638Z,5.80
2023-05-14T11:26:34.453Z,6.10
2023-05-14T11:29:02.928Z,4.60
2023-05-14T11:31:31.729Z,17.80
2023-05-14T11:34:01.242Z,4.50
2023-05-14T11:36:29.599Z,5.00
2023-05-14T11:38:57.947Z,4.60
2023-05-14T11:41:28.203Z,5.00
2023-05-14T11:43:58.086Z,3.90
2023-05-14T11:46:26.741Z,4.00
2023-05-14T11:48:55.339Z,6.00
2023-05-14T11:51:24.056Z,7.00
2023-05-14T11:53:52.433Z,6.20
2023-05-14T11:56:22.718Z,5.40
2023-05-14T11:58:57.461Z,5.20
2023-05-14T12:01:25.948Z,4.40
2023-05-14T12:03:54.514Z,4.50
2023-05-14T12:06:32.291Z,4.40
2023-05-14T12:09:01.733Z,5.60
2023-05-14T12:11:33.635Z,7.60
2023-05-14T12:14:02.190Z,5.40
2023-05-14T12:16:35.567Z,7.60
2023-05-14T12:19:06.320Z,4.10
2023-05-14T12:21:35.249Z,3.90
2023-05-14T12:24:03.700Z,6.30
2023-05-14T12:26:35.278Z,5.50
2023-05-14T12:29:04.131Z,6.60
2023-05-14T12:31:38.986Z,6.20
2023-05-14T12:34:07.382Z,4.20
2023-05-14T12:36:36.381Z,3.80
2023-05-14T12:39:06.195Z,3.80
2023-05-14T12:41:34.634Z,5.30
2023-05-14T12:44:05.003Z,5.40
2023-05-14T12:46:34.503Z,5.80
2023-05-14T12:49:02.978Z,3.70
2023-05-14T12:51:31.444Z,4.50
2023-05-14T12:53:59.796Z,4.50
2023-05-14T12:56:28.701Z,7.20
2023-05-14T12:58:57.224Z,4.60
2023-05-14T13:01:25.647Z,5.10
2023-05-14T13:03:55.593Z,5.10
2023-05-14T13:06:24.098Z,5.30
2023-05-14T13:08:52.651Z,8.20
2023-05-14T13:11:21.943Z,6.40
2023-05-14T13:13:50.307Z,8.90
2023-05-14T13:16:18.663Z,6.00
2023-05-14T13:18:47.355Z,5.00
2023-05-14T13:21:15.754Z,4.70
2023-05-14T13:23:44.114Z,5.60
2023-05-14T13:26:12.577Z,7.50
2023-05-14T13:28:41.282Z,6.00
2023-05-14T13:31:12.212Z,4.60
2023-05-14T13:33:42.955Z,4.50
2023-05-14T13:36:13.388Z,6.20
2023-05-14T13:38:41.853Z,6.60
2023-05-14T13:41:10.175Z,4.10
2023-05-14T13:43:38.591Z,5.10
2023-05-14T13:46:07.756Z,4.20
2023-05-14T13:48:37.358Z,6.00
2023-05-14T13:51:06.064Z,6.20
2023-05-14T13:53:34.476Z,6.00
2023-05-14T13:56:02.988Z,4.70
2023-05-14T13:58:31.381Z,4.80
2023-05-14T14:00:59.935Z,5.60
2023-05-14T14:03:28.518Z,4.50
2023-05-14T14:05:56.875Z,5.10
2023-05-14T14:08:25.176Z,3.90
2023-05-14T14:10:55.568Z,4.70
2023-05-14T14:13:24.590Z,4.80
2023-05-14T14:15:55.898Z,5.10
2023-05-14T14:18:24.378Z,4.00
2023-05-14T14:20:52.853Z,4.30
2023-05-14T14:23:21.474Z,5.00
2023-05-14T14:25:49.987Z,4.10
2023-05-14T14:28:19.164Z,4.90
2023-05-14T14:30:47.795Z,5.30
2023-05-14T14:33:16.462Z,4.00
2023-05-14T14:35:44.978Z,5.10
2023-05-14T14:38:14.012Z,5.80
2023-05-14T14:40:42.444Z,4.10
2023-05-14T14:43:10.921Z,4.00
2023-05-14T14:45:39.359Z,4.40
2023-05-14T14:48:28.132Z,3.90
2023-05-14T14:50:56.704Z,5.20
2023-05-14T14:53:25.332Z,5.40
2023-05-14T14:55:54.090Z,3.90
2023-05-14T14:58:23.274Z,4.30
2023-05-14T15:00:56.432Z,5.20
2023-05-14T15:03:26.014Z,6.80
2023-05-14T15:05:54.596Z,6.90
2023-05-14T15:08:49.381Z,7.30
2023-05-14T15:11:17.787Z,4.60
2023-05-14T15:13:46.366Z,4.20
2023-05-14T15:16:15.704Z,5.50
2023-05-14T15:18:44.182Z,4.20
2023-05-14T15:21:12.609Z,4.90
2023-05-14T15:23:41.010Z,5.00
2023-05-14T15:26:09.352Z,5.00
2023-05-14T15:28:37.664Z,5.30
2023-05-14T15:31:06.310Z,5.10
2023-05-14T15:33:36.202Z,8.80
2023-05-14T15:36:05.093Z,5.70
2023-05-14T15:38:33.616Z,6.50
2023-05-14T15:41:02.098Z,5.00
2023-05-14T15:43:30.568Z,6.10
2023-05-14T15:45:59.000Z,4.90
2023-05-14T15:48:27.310Z,3.80
2023-05-14T15:50:55.736Z,4.70
2023-05-14T15:53:24.207Z,5.10
2023-05-14T15:55:52.632Z,6.10
2023-05-14T15:58:20.976Z,5.80
2023-05-14T16:00:49.467Z,6.10
2023-05-14T16:03:17.844Z,5.30
2023-05-14T16:05:47.021Z,4.70
2023-05-14T16:08:15.463Z,5.50
2023-05-14T16:10:43.838Z,5.60
2023-05-14T16:13:12.174Z,7.40
2023-05-14T16:15:40.846Z,5.20
2023-05-14T16:18:09.387Z,9.30
2023-05-14T16:20:37.734Z,4.50
2023-05-14T16:23:06.152Z,6.70
2023-05-14T16:25:34.585Z,7.10
2023-05-14T16:28:03.133Z,6.80
2023-05-14T16:30:31.553Z,6.30
2023-05-14T16:33:00.161Z,9.20
2023-05-14T16:35:28.627Z,8.20
2023-05-14T16:37:57.045Z,10.30
2023-05-14T16:40:25.837Z,10.60
2023-05-14T16:42:54.300Z,10.20
2023-05-14T16:45:22.775Z,6.10
2023-05-14T16:47:51.396Z,8.90
2023-05-14T16:50:19.989Z,6.40
2023-05-14T16:52:48.426Z,6.50
2023-05-14T16:55:16.927Z,6.90
2023-05-14T16:57:45.586Z,8.90
2023-05-14T17:00:15.313Z,9.80
2023-05-14T17:02:43.755Z,7.70
2023-05-14T17:05:12.127Z,6.60
2023-05-14T17:07:40.525Z,6.90
2023-05-14T17:10:09.539Z,7.30
2023-05-14T17:12:38.132Z,8.30
2023-05-14T17:15:07.455Z,6.70
2023-05-14T17:17:35.992Z,7.40
2023-05-14T17:20:06.043Z,6.20
2023-05-14T17:22:34.740Z,6.40
2023-05-14T17:25:03.588Z,7.70
2023-05-14T17:27:33.521Z,9.10
2023-05-14T17:30:03.527Z,10.70
2023-05-14T17:32:32.049Z,6.80
2023-05-14T17:35:00.633Z,10.10
2023-05-14T17:37:29.116Z,8.40
2023-05-14T17:39:57.577Z,13.00
2023-05-14T17:42:26.011Z,8.10
2023-05-14T17:44:54.567Z,10.00
2023-05-14T17:47:22.936Z,7.50
2023-05-14T17:49:51.570Z,7.50
2023-05-14T17:52:20.009Z,7.20
2023-05-14T17:54:48.389Z,6.90
2023-05-14T17:57:17.097Z,5.50
2023-05-14T17:59:45.507Z,6.40
2023-05-14T18:02:13.830Z,8.10
2023-05-14T18:04:42.609Z,7.30
2023-05-14T18:07:11.066Z,7.20
2023-05-14T18:09:39.454Z,8.10
2023-05-14T18:12:08.396Z,11.60
2023-05-14T18:14:36.774Z,15.70
2023-05-14T18:17:06.083Z,13.30
2023-05-14T18:19:34.959Z,16.40
2023-05-14T18:22:03.280Z,15.40
2023-05-14T18:24:31.669Z,12.60
2023-05-14T18:27:00.690Z,14.50
2023-05-14T18:29:29.073Z,12.80
2023-05-14T18:31:57.448Z,12.80
2023-05-14T18:34:25.813Z,14.00
2023-05-14T18:36:54.409Z,14.10
2023-05-14T18:39:22.798Z,9.80
2023-05-14T18:41:51.258Z,10.20
2023-05-14T18:44:19.658Z,8.90
2023-05-14T18:46:48.086Z,7.70
2023-05-14T18:49:16.572Z,7.90
2023-05-14T18:51:45.050Z,8.20
2023-05-14T18:54:13.361Z,7.70
2023-05-14T18:56:46.743Z,7.30
2023-05-14T18:59:16.105Z,9.00
2023-05-14T19:01:44.592Z,6.50
2023-05-14T19:04:12.971Z,11.50
2023-05-14T19:06:41.425Z,10.40
2023-05-14T19:09:11.021Z,8.50
2023-05-14T19:11:39.338Z,10.40
2023-05-14T19:14:07.696Z,10.80
2023-05-14T19:16:36.222Z,8.20
2023-05-14T19:19:04.924Z,9.30
2023-05-14T19:21:33.364Z,8.60
2023-05-14T19:24:01.812Z,9.30
2023-05-14T19:26:30.267Z,9.90
2023-05-14T19:28:58.917Z,8.30
2023-05-14T19:31:28.333Z,7.70
2023-05-14T19:33:56.788Z,7.10
2023-05-14T19:36:25.194Z,7.60
2023-05-14T19:38:53.545Z,7.20
2023-05-14T19:41:21.932Z,8.00
2023-05-14T19:43:51.437Z,7.10
2023-05-14T19:46:19.933Z,8.30
2023-05-14T19:48:48.697Z,8.30
2023-05-14T19:51:17.178Z,9.70
2023-05-14T19:53:45.711Z,8.40
2023-05-14T19:56:14.143Z,10.40
2023-05-14T19:58:42.821Z,7.40
2023-05-14T20:01:12.232Z,8.10
2023-05-14T20:03:40.703Z,7.40
2023-05-14T20:06:09.172Z,7.20
2023-05-14T20:08:37.560Z,9.20
2023-05-14T20:11:06.502Z,12.50
2023-05-14T20:13:36.564Z,8.00
2023-05-14T20:16:05.321Z,8.90
2023-05-14T20:18:33.839Z,8.20
2023-05-14T20:21:02.371Z,8.30
2023-05-14T20:23:30.828Z,6.60
2023-05-14T20:26:01.875Z,9.40
2023-05-14T20:28:30.734Z,9.80
2023-05-14T20:31:00.375Z,8.90
2023-05-14T20:33:29.294Z,8.50
2023-05-14T20:35:57.773Z,9.10
2023-05-14T20:38:29.410Z,8.20
2023-05-14T20:40:58.121Z,8.20
2023-05-14T20:43:29.174Z,10.40
2023-05-14T20:45:59.069Z,7.50
2023-05-14T20:48:27.587Z,7.60
2023-05-14T20:50:55.988Z,8.50
2023-05-14T20:53:25.578Z,9.70
2023-05-14T20:55:53.930Z,10.20
2023-05-14T20:58:22.387Z,7.80
2023-05-14T21:00:51.200Z,8.60
2023-05-14T21:03:19.718Z,6.80
2023-05-14T21:05:48.286Z,8.10
2023-05-14T21:08:16.943Z,9.10
2023-05-14T21:10:45.328Z,7.20
2023-05-14T21:13:13.855Z,7.50
2023-05-14T21:15:42.285Z,8.30
2023-05-14T21:18:12.442Z,7.20
2023-05-14T21:20:41.052Z,7.90
2023-05-14T21:23:09.389Z,7.10
2023-05-14T21:25:38.109Z,7.60
2023-05-14T21:28:06.506Z,7.50
2023-05-14T21:30:34.823Z,8.00
2023-05-14T21:33:03.371Z,8.30
2023-05-14T21:35:31.951Z,8.90
2023-05-14T21:38:00.360Z,8.80
2023-05-14T21:40:28.743Z,8.00
2023-05-14T21:42:57.105Z,8.10
2023-05-14T21:45:25.747Z,6.70
2023-05-14T21:47:54.277Z,7.00
2023-05-14T21:50:22.656Z,6.10
2023-05-14T21:52:51.027Z,7.60
2023-05-14T21:55:19.284Z,7.10
2023-05-14T21:57:47.681Z,5.90
2023-05-14T22:00:23.326Z,6.20
2023-05-14T22:02:55.275Z,6.00
2023-05-14T22:05:24.008Z,6.20
2023-05-14T22:07:52.531Z,5.80
2023-05-14T22:10:20.977Z,6.40
2023-05-14T22:12:49.324Z,6.40
2023-05-14T22:15:17.800Z,7.10
2023-05-14T22:17:47.701Z,8.30
2023-05-14T22:20:16.217Z,8.80
2023-05-14T22:22:44.654Z,8.20
2023-05-14T22:25:13.030Z,8.60
2023-05-14T22:27:41.552Z,6.30
2023-05-14T22:30:10.402Z,9.10
2023-05-14T22:32:38.737Z,7.90
2023-05-14T22:35:07.369Z,6.20
2023-05-14T22:37:35.685Z,6.40
2023-05-14T22:40:05.439Z,7.80
2023-05-14T22:42:33.801Z,9.40
2023-05-14T22:45:02.254Z,8.20
2023-05-14T22:47:30.915Z,8.10
2023-05-14T22:49:59.371Z,7.50
2023-05-14T22:52:27.706Z,7.10
2023-05-14T22:54:56.281Z,7.30
2023-05-14T22:57:24.679Z,6.80
2023-05-14T22:59:53.038Z,8.20
2023-05-14T23:02:21.441Z,7.20
2023-05-14T23:04:49.942Z,6.30
2023-05-14T23:07:18.398Z,6.80
2023-05-14T23:09:46.747Z,6.80
2023-05-14T23:12:18.790Z,7.00
2023-05-14T23:14:47.116Z,8.10
2023-05-14T23:17:17.198Z,7.10
2023-05-14T23:19:45.787Z,7.80
2023-05-14T23:22:14.194Z,5.60
2023-05-14T23:24:42.593Z,9.10
2023-05-14T23:27:11.555Z,6.60
2023-05-14T23:29:39.931Z,7.50
2023-05-14T23:32:08.653Z,6.20
2023-05-14T23:34:37.180Z,7.60
2023-05-14T23:37:05.934Z,6.70
2023-05-14T23:39:34.407Z,7.40
2023-05-14T23:42:02.774Z,7.30
2023-05-14T23:44:31.162Z,6.50
2023-05-14T23:46:59.621Z,6.80
2023-05-14T23:49:28.015Z,6.80
2023-05-14T23:51:56.911Z,5.70
2023-05-14T23:54:25.356Z,6.70
2023-05-14T23:56:53.787Z,6.60
2023-05-14T23:59:22.617Z,8.30
